sensor_id;sensor_type;location;lat;lon;timestamp;temperature;humidity
8595;DHT22;4335;48.860;9.198;2023-09-19T00:00:20;18.70;99.90
8595;DHT22;4335;48.860;9.198;2023-09-19T00:02:52;18.70;99.90
8595;DHT22;4335;48.860;9.198;2023-09-19T00:05:19;18.60;99.90
8595;DHT22;4335;48.860;9.198;2023-09-19T00:07:57;18.60;99.90
8595;DHT22;4335;48.860;9.198;2023-09-19T00:10:25;18.60;99.90
8595;DHT22;4335;48.860;9.198;2023-09-19T00:12:55;18.60;99.90
8595;DHT22;4335;48.860;9.198;2023-09-19T00:15:22;18.60;99.90
8595;DHT22;4335;48.860;9.198;2023-09-19T00:17:49;18.60;99.90
8595;DHT22;4335;48.860;9.198;2023-09-19T00:20:24;18.60;99.90
8595;DHT22;4335;48.860;9.198;2023-09-19T00:22:58;18.60;99.90
8595;DHT22;4335;48.860;9.198;2023-09-19T00:25:31;18.60;99.90
8595;DHT22;4335;48.860;9.198;2023-09-19T00:28:11;18.60;99.90
8595;DHT22;4335;48.860;9.198;2023-09-19T00:30:37;18.50;99.90
8595;DHT22;4335;48.860;9.198;2023-09-19T00:33:05;18.50;99.90
8595;DHT22;4335;48.860;9.198;2023-09-19T00:35:36;18.50;99.90
8595;DHT22;4335;48.860;9.198;2023-09-19T00:38:05;18.40;99.90
8595;DHT22;4335;48.860;9.198;2023-09-19T00:40:36;18.40;99.90
8595;DHT22;4335;48.860;9.198;2023-09-19T00:43:05;18.40;99.90
8595;DHT22;4335;48.860;9.198;2023-09-19T00:45:33;18.40;99.90
8595;DHT22;4335;48.860;9.198;2023-09-19T00:48:02;18.40;99.90
8595;DHT22;4335;48.860;9.198;2023-09-19T00:50:38;18.40;99.90
8595;DHT22;4335;48.860;9.198;2023-09-19T00:53:14;18.40;99.90
8595;DHT22;4335;48.860;9.198;2023-09-19T00:55:48;18.40;99.90
8595;DHT22;4335;48.860;9.198;2023-09-19T00:58:18;18.40;99.90
8595;DHT22;4335;48.860;9.198;2023-09-19T01:00:48;18.30;99.90
8595;DHT22;4335;48.860;9.198;2023-09-19T01:03:16;18.30;99.90
8595;DHT22;4335;48.860;9.198;2023-09-19T01:05:44;18.30;99.90
8595;DHT22;4335;48.860;9.198;2023-09-19T01:08:11;18.30;99.90
8595;DHT22;4335;48.860;9.198;2023-09-19T01:10:41;18.30;99.90
8595;DHT22;4335;48.860;9.198;2023-09-19T01:13:18;18.20;99.90
8595;DHT22;4335;48.860;9.198;2023-09-19T01:15:57;18.30;99.90
8595;DHT22;4335;48.860;9.198;2023-09-19T01:18:37;18.30;99.90
8595;DHT22;4335;48.860;9.198;2023-09-19T01:21:10;18.20;99.90
8595;DHT22;4335;48.860;9.198;2023-09-19T01:24:05;18.20;99.90
8595;DHT22;4335;48.860;9.198;2023-09-19T01:29:38;18.20;99.90
8595;DHT22;4335;48.860;9.198;2023-09-19T01:32:08;18.20;99.90
8595;DHT22;4335;48.860;9.198;2023-09-19T01:34:46;18.20;99.90
8595;DHT22;4335;48.860;9.198;2023-09-19T01:37:13;18.20;99.90
8595;DHT22;4335;48.860;9.198;2023-09-19T01:39:46;18.10;99.90
8595;DHT22;4335;48.860;9.198;2023-09-19T01:42:24;18.10;99.90
8595;DHT22;4335;48.860;9.198;2023-09-19T01:44:57;18.10;99.90
8595;DHT22;4335;48.860;9.198;2023-09-19T01:47:32;18.10;99.90
8595;DHT22;4335;48.860;9.198;2023-09-19T01:50:11;18.00;99.90
8595;DHT22;4335;48.860;9.198;2023-09-19T01:52:47;18.00;99.90
8595;DHT22;4335;48.860;9.198;2023-09-19T01:55:16;18.00;99.90
8595;DHT22;4335;48.860;9.198;2023-09-19T01:57:50;18.00;99.90
8595;DHT22;4335;48.860;9.198;2023-09-19T02:00:21;18.00;99.90
8595;DHT22;4335;48.860;9.198;2023-09-19T02:02:49;18.00;99.90
8595;DHT22;4335;48.860;9.198;2023-09-19T02:05:24;18.00;99.90
8595;DHT22;4335;48.860;9.198;2023-09-19T02:07:54;18.00;99.90
8595;DHT22;4335;48.860;9.198;2023-09-19T02:10:22;17.90;99.90
8595;DHT22;4335;48.860;9.198;2023-09-19T02:12:49;17.90;99.90
8595;DHT22;4335;48.860;9.198;2023-09-19T02:15:16;17.90;99.90
8595;DHT22;4335;48.860;9.198;2023-09-19T02:17:43;17.90;99.90
8595;DHT22;4335;48.860;9.198;2023-09-19T02:20:13;17.90;99.90
8595;DHT22;4335;48.860;9.198;2023-09-19T02:22:43;17.80;99.90
8595;DHT22;4335;48.860;9.198;2023-09-19T02:25:13;17.80;99.90
8595;DHT22;4335;48.860;9.198;2023-09-19T02:27:46;17.80;99.90
8595;DHT22;4335;48.860;9.198;2023-09-19T02:30:13;17.70;99.90
8595;DHT22;4335;48.860;9.198;2023-09-19T02:32:44;17.70;99.90
8595;DHT22;4335;48.860;9.198;2023-09-19T02:35:12;17.60;99.90
8595;DHT22;4335;48.860;9.198;2023-09-19T02:37:46;17.60;99.90
8595;DHT22;4335;48.860;9.198;2023-09-19T02:40:13;17.60;99.90
8595;DHT22;4335;48.860;9.198;2023-09-19T02:42:52;17.50;99.90
8595;DHT22;4335;48.860;9.198;2023-09-19T02:45:21;17.50;99.90
8595;DHT22;4335;48.860;9.198;2023-09-19T02:47:49;17.50;99.90
8595;DHT22;4335;48.860;9.198;2023-09-19T02:50:24;17.40;99.90
8595;DHT22;4335;48.860;9.198;2023-09-19T02:53:00;17.40;99.90
8595;DHT22;4335;48.860;9.198;2023-09-19T02:55:28;17.40;99.90
8595;DHT22;4335;48.860;9.198;2023-09-19T02:57:55;17.40;99.90
8595;DHT22;4335;48.860;9.198;2023-09-19T03:00:22;17.40;99.90
8595;DHT22;4335;48.860;9.198;2023-09-19T03:02:49;17.50;99.90
8595;DHT22;4335;48.860;9.198;2023-09-19T03:05:16;17.50;99.90
8595;DHT22;4335;48.860;9.198;2023-09-19T03:07:47;17.50;99.90
8595;DHT22;4335;48.860;9.198;2023-09-19T03:10:16;17.50;99.90
8595;DHT22;4335;48.860;9.198;2023-09-19T03:12:50;17.50;99.90
8595;DHT22;4335;48.860;9.198;2023-09-19T03:15:19;17.50;99.90
8595;DHT22;4335;48.860;9.198;2023-09-19T03:17:47;17.50;99.90
8595;DHT22;4335;48.860;9.198;2023-09-19T03:20:17;17.50;99.90
8595;DHT22;4335;48.860;9.198;2023-09-19T03:22:53;17.60;99.90
8595;DHT22;4335;48.860;9.198;2023-09-19T03:25:20;17.50;99.90
8595;DHT22;4335;48.860;9.198;2023-09-19T03:27:48;17.60;99.90
8595;DHT22;4335;48.860;9.198;2023-09-19T03:30:18;17.60;99.90
8595;DHT22;4335;48.860;9.198;2023-09-19T03:32:50;17.60;99.90
8595;DHT22;4335;48.860;9.198;2023-09-19T03:35:26;17.60;99.90
8595;DHT22;4335;48.860;9.198;2023-09-19T03:38:06;17.60;99.90
8595;DHT22;4335;48.860;9.198;2023-09-19T03:40:33;17.70;99.90
8595;DHT22;4335;48.860;9.198;2023-09-19T03:43:00;17.70;99.90
8595;DHT22;4335;48.860;9.198;2023-09-19T03:45:36;17.70;99.90
8595;DHT22;4335;48.860;9.198;2023-09-19T03:48:08;17.60;99.90
8595;DHT22;4335;48.860;9.198;2023-09-19T03:50:35;17.60;99.90
8595;DHT22;4335;48.860;9.198;2023-09-19T03:53:06;17.60;99.90
8595;DHT22;4335;48.860;9.198;2023-09-19T03:55:36;17.60;99.90
8595;DHT22;4335;48.860;9.198;2023-09-19T03:58:04;17.60;99.90
8595;DHT22;4335;48.860;9.198;2023-09-19T04:00:31;17.60;99.90
8595;DHT22;4335;48.860;9.198;2023-09-19T04:03:01;17.60;99.90
8595;DHT22;4335;48.860;9.198;2023-09-19T04:05:37;17.60;99.90
8595;DHT22;4335;48.860;9.198;2023-09-19T04:08:04;17.60;99.90
8595;DHT22;4335;48.860;9.198;2023-09-19T04:10:35;17.50;99.90
8595;DHT22;4335;48.860;9.198;2023-09-19T04:13:04;17.50;99.90
8595;DHT22;4335;48.860;9.198;2023-09-19T04:15:33;17.50;99.90
8595;DHT22;4335;48.860;9.198;2023-09-19T04:18:00;17.50;99.90
8595;DHT22;4335;48.860;9.198;2023-09-19T04:20:32;17.50;99.90
8595;DHT22;4335;48.860;9.198;2023-09-19T04:22:59;17.50;99.90
8595;DHT22;4335;48.860;9.198;2023-09-19T04:25:25;17.50;99.90
8595;DHT22;4335;48.860;9.198;2023-09-19T04:28:02;17.50;99.90
8595;DHT22;4335;48.860;9.198;2023-09-19T04:30:30;17.40;99.90
8595;DHT22;4335;48.860;9.198;2023-09-19T04:33:03;17.40;99.90
8595;DHT22;4335;48.860;9.198;2023-09-19T04:35:31;17.40;99.90
8595;DHT22;4335;48.860;9.198;2023-09-19T04:38:01;17.40;99.90
8595;DHT22;4335;48.860;9.198;2023-09-19T04:40:29;17.40;99.90
8595;DHT22;4335;48.860;9.198;2023-09-19T04:42:59;17.40;99.90
8595;DHT22;4335;48.860;9.198;2023-09-19T04:45:26;17.40;99.90
8595;DHT22;4335;48.860;9.198;2023-09-19T04:47:56;17.40;99.90
8595;DHT22;4335;48.860;9.198;2023-09-19T04:50:23;17.30;99.90
8595;DHT22;4335;48.860;9.198;2023-09-19T04:52:56;17.30;99.90
8595;DHT22;4335;48.860;9.198;2023-09-19T04:55:29;17.40;99.90
8595;DHT22;4335;48.860;9.198;2023-09-19T04:57:59;17.30;99.90
8595;DHT22;4335;48.860;9.198;2023-09-19T05:00:37;17.40;99.90
8595;DHT22;4335;48.860;9.198;2023-09-19T05:03:04;17.40;99.90
8595;DHT22;4335;48.860;9.198;2023-09-19T05:05:34;17.30;99.90
8595;DHT22;4335;48.860;9.198;2023-09-19T05:08:04;17.30;99.90
8595;DHT22;4335;48.860;9.198;2023-09-19T05:10:31;17.30;99.90
8595;DHT22;4335;48.860;9.198;2023-09-19T05:12:58;17.30;99.90
8595;DHT22;4335;48.860;9.198;2023-09-19T05:15:25;17.30;99.90
8595;DHT22;4335;48.860;9.198;2023-09-19T05:17:54;17.30;99.90
8595;DHT22;4335;48.860;9.198;2023-09-19T05:20:21;17.30;99.90
8595;DHT22;4335;48.860;9.198;2023-09-19T05:22:59;17.30;99.90
8595;DHT22;4335;48.860;9.198;2023-09-19T05:25:28;17.30;99.90
8595;DHT22;4335;48.860;9.198;2023-09-19T05:27:58;17.30;99.90
8595;DHT22;4335;48.860;9.198;2023-09-19T05:30:30;17.30;99.90
8595;DHT22;4335;48.860;9.198;2023-09-19T05:32:56;17.30;99.90
8595;DHT22;4335;48.860;9.198;2023-09-19T05:35:23;17.20;99.90
8595;DHT22;4335;48.860;9.198;2023-09-19T05:37:51;17.20;99.90
8595;DHT22;4335;48.860;9.198;2023-09-19T05:40:20;17.20;99.90
8595;DHT22;4335;48.860;9.198;2023-09-19T05:42:47;17.20;99.90
8595;DHT22;4335;48.860;9.198;2023-09-19T05:45:18;17.20;99.90
8595;DHT22;4335;48.860;9.198;2023-09-19T05:47:51;17.20;99.90
8595;DHT22;4335;48.860;9.198;2023-09-19T05:50:24;17.20;99.90
8595;DHT22;4335;48.860;9.198;2023-09-19T05:52:54;17.10;99.90
8595;DHT22;4335;48.860;9.198;2023-09-19T05:55:34;17.20;99.90
8595;DHT22;4335;48.860;9.198;2023-09-19T05:58:01;17.10;99.90
8595;DHT22;4335;48.860;9.198;2023-09-19T06:00:29;17.10;99.90
8595;DHT22;4335;48.860;9.198;2023-09-19T06:03:01;17.10;99.90
8595;DHT22;4335;48.860;9.198;2023-09-19T06:05:30;17.10;99.90
8595;DHT22;4335;48.860;9.198;2023-09-19T06:07:57;17.00;99.90
8595;DHT22;4335;48.860;9.198;2023-09-19T06:10:26;16.90;99.90
8595;DHT22;4335;48.860;9.198;2023-09-19T06:12:59;16.90;99.90
8595;DHT22;4335;48.860;9.198;2023-09-19T06:15:26;16.80;99.90
8595;DHT22;4335;48.860;9.198;2023-09-19T06:18:00;16.90;99.90
8595;DHT22;4335;48.860;9.198;2023-09-19T06:20:28;16.90;99.90
8595;DHT22;4335;48.860;9.198;2023-09-19T06:22:55;16.90;99.90
8595;DHT22;4335;48.860;9.198;2023-09-19T06:25:22;16.90;99.90
8595;DHT22;4335;48.860;9.198;2023-09-19T06:27:49;16.90;99.90
8595;DHT22;4335;48.860;9.198;2023-09-19T06:30:18;16.90;99.90
8595;DHT22;4335;48.860;9.198;2023-09-19T06:32:48;17.00;99.90
8595;DHT22;4335;48.860;9.198;2023-09-19T06:35:32;17.00;99.90
8595;DHT22;4335;48.860;9.198;2023-09-19T06:38:03;17.10;99.90
8595;DHT22;4335;48.860;9.198;2023-09-19T06:40:31;17.20;99.90
8595;DHT22;4335;48.860;9.198;2023-09-19T06:42:59;17.30;99.90
8595;DHT22;4335;48.860;9.198;2023-09-19T06:45:28;17.50;99.90
8595;DHT22;4335;48.860;9.198;2023-09-19T06:47:57;17.60;99.90
8595;DHT22;4335;48.860;9.198;2023-09-19T06:50:26;17.80;99.90
8595;DHT22;4335;48.860;9.198;2023-09-19T06:53:01;17.90;99.90
8595;DHT22;4335;48.860;9.198;2023-09-19T06:55:28;18.00;99.90
8595;DHT22;4335;48.860;9.198;2023-09-19T06:57:57;18.10;99.90
8595;DHT22;4335;48.860;9.198;2023-09-19T07:00:27;18.30;99.90
8595;DHT22;4335;48.860;9.198;2023-09-19T07:02:57;18.40;99.90
8595;DHT22;4335;48.860;9.198;2023-09-19T07:05:26;18.60;99.90
8595;DHT22;4335;48.860;9.198;2023-09-19T07:07:54;18.80;99.90
8595;DHT22;4335;48.860;9.198;2023-09-19T07:10:25;19.00;99.90
8595;DHT22;4335;48.860;9.198;2023-09-19T07:12:56;19.10;99.90
8595;DHT22;4335;48.860;9.198;2023-09-19T07:15:26;19.30;99.90
8595;DHT22;4335;48.860;9.198;2023-09-19T07:17:53;19.30;99.90
8595;DHT22;4335;48.860;9.198;2023-09-19T07:20:20;19.30;99.90
8595;DHT22;4335;48.860;9.198;2023-09-19T07:22:47;19.40;99.90
8595;DHT22;4335;48.860;9.198;2023-09-19T07:25:19;19.40;99.90
8595;DHT22;4335;48.860;9.198;2023-09-19T07:27:49;19.40;99.90
8595;DHT22;4335;48.860;9.198;2023-09-19T07:30:17;19.50;99.90
8595;DHT22;4335;48.860;9.198;2023-09-19T07:32:43;19.60;99.90
8595;DHT22;4335;48.860;9.198;2023-09-19T07:35:10;19.70;99.90
8595;DHT22;4335;48.860;9.198;2023-09-19T07:37:38;19.70;99.90
8595;DHT22;4335;48.860;9.198;2023-09-19T07:40:08;19.80;99.90
8595;DHT22;4335;48.860;9.198;2023-09-19T07:42:35;19.80;99.90
8595;DHT22;4335;48.860;9.198;2023-09-19T07:45:10;19.90;99.90
8595;DHT22;4335;48.860;9.198;2023-09-19T07:47:44;20.10;99.90
8595;DHT22;4335;48.860;9.198;2023-09-19T07:50:11;20.10;99.90
8595;DHT22;4335;48.860;9.198;2023-09-19T07:52:38;20.20;99.90
8595;DHT22;4335;48.860;9.198;2023-09-19T07:55:11;20.10;99.90
8595;DHT22;4335;48.860;9.198;2023-09-19T07:57:42;20.20;99.90
8595;DHT22;4335;48.860;9.198;2023-09-19T08:00:14;20.30;99.90
8595;DHT22;4335;48.860;9.198;2023-09-19T08:02:41;20.30;99.90
8595;DHT22;4335;48.860;9.198;2023-09-19T08:05:09;20.30;99.90
8595;DHT22;4335;48.860;9.198;2023-09-19T08:07:36;20.30;99.90
8595;DHT22;4335;48.860;9.198;2023-09-19T08:10:11;20.30;99.90
8595;DHT22;4335;48.860;9.198;2023-09-19T08:12:46;20.30;99.90
8595;DHT22;4335;48.860;9.198;2023-09-19T08:15:14;20.30;99.90
8595;DHT22;4335;48.860;9.198;2023-09-19T08:17:43;20.40;99.90
8595;DHT22;4335;48.860;9.198;2023-09-19T08:20:11;20.50;99.90
8595;DHT22;4335;48.860;9.198;2023-09-19T08:22:43;20.40;99.90
8595;DHT22;4335;48.860;9.198;2023-09-19T08:25:10;20.40;99.90
8595;DHT22;4335;48.860;9.198;2023-09-19T08:27:36;20.50;99.90
8595;DHT22;4335;48.860;9.198;2023-09-19T08:30:03;20.50;99.90
8595;DHT22;4335;48.860;9.198;2023-09-19T08:32:31;20.50;99.90
8595;DHT22;4335;48.860;9.198;2023-09-19T08:34:57;20.60;99.90
8595;DHT22;4335;48.860;9.198;2023-09-19T08:37:27;20.70;99.90
8595;DHT22;4335;48.860;9.198;2023-09-19T08:39:54;20.80;99.90
8595;DHT22;4335;48.860;9.198;2023-09-19T08:42:24;20.90;99.90
8595;DHT22;4335;48.860;9.198;2023-09-19T08:44:51;21.00;99.90
8595;DHT22;4335;48.860;9.198;2023-09-19T08:47:28;21.20;99.90
8595;DHT22;4335;48.860;9.198;2023-09-19T08:50:07;21.30;99.90
8595;DHT22;4335;48.860;9.198;2023-09-19T08:52:43;21.40;99.90
8595;DHT22;4335;48.860;9.198;2023-09-19T08:55:13;21.50;99.90
8595;DHT22;4335;48.860;9.198;2023-09-19T08:57:46;21.70;99.90
8595;DHT22;4335;48.860;9.198;2023-09-19T09:00:20;21.90;99.90
8595;DHT22;4335;48.860;9.198;2023-09-19T09:02:51;22.00;99.90
8595;DHT22;4335;48.860;9.198;2023-09-19T09:05:24;22.00;99.90
8595;DHT22;4335;48.860;9.198;2023-09-19T09:07:51;22.10;99.90
8595;DHT22;4335;48.860;9.198;2023-09-19T09:10:18;22.10;99.90
8595;DHT22;4335;48.860;9.198;2023-09-19T09:12:48;22.10;99.90
8595;DHT22;4335;48.860;9.198;2023-09-19T09:15:18;22.10;99.90
8595;DHT22;4335;48.860;9.198;2023-09-19T09:17:47;22.30;99.90
8595;DHT22;4335;48.860;9.198;2023-09-19T09:20:14;23.20;99.90
8595;DHT22;4335;48.860;9.198;2023-09-19T09:22:50;24.40;99.90
8595;DHT22;4335;48.860;9.198;2023-09-19T09:25:47;25.60;99.90
8595;DHT22;4335;48.860;9.198;2023-09-19T09:28:19;26.90;99.90
8595;DHT22;4335;48.860;9.198;2023-09-19T09:30:46;27.60;99.90
8595;DHT22;4335;48.860;9.198;2023-09-19T09:33:14;27.90;99.90
8595;DHT22;4335;48.860;9.198;2023-09-19T09:35:49;28.10;99.90
8595;DHT22;4335;48.860;9.198;2023-09-19T09:38:25;28.90;99.90
8595;DHT22;4335;48.860;9.198;2023-09-19T09:40:54;30.10;97.10
8595;DHT22;4335;48.860;9.198;2023-09-19T09:43:36;31.00;94.20
8595;DHT22;4335;48.860;9.198;2023-09-19T09:46:13;32.10;90.50
8595;DHT22;4335;48.860;9.198;2023-09-19T09:48:58;32.50;82.20
8595;DHT22;4335;48.860;9.198;2023-09-19T09:51:49;32.20;77.10
8595;DHT22;4335;48.860;9.198;2023-09-19T09:54:29;31.90;75.50
8595;DHT22;4335;48.860;9.198;2023-09-19T09:57:03;32.00;74.30
8595;DHT22;4335;48.860;9.198;2023-09-19T09:59:47;32.20;74.30
8595;DHT22;4335;48.860;9.198;2023-09-19T10:02:16;32.50;71.50
8595;DHT22;4335;48.860;9.198;2023-09-19T10:04:49;32.20;70.70
8595;DHT22;4335;48.860;9.198;2023-09-19T10:07:26;32.60;71.00
8595;DHT22;4335;48.860;9.198;2023-09-19T10:10:00;32.90;70.20
8595;DHT22;4335;48.860;9.198;2023-09-19T10:12:40;33.10;68.80
8595;DHT22;4335;48.860;9.198;2023-09-19T10:15:12;33.10;65.90
8595;DHT22;4335;48.860;9.198;2023-09-19T10:17:43;33.70;64.90
8595;DHT22;4335;48.860;9.198;2023-09-19T10:20:12;33.90;62.20
8595;DHT22;4335;48.860;9.198;2023-09-19T10:23:00;33.90;60.30
8595;DHT22;4335;48.860;9.198;2023-09-19T10:25:28;34.20;60.80
8595;DHT22;4335;48.860;9.198;2023-09-19T10:28:00;34.50;58.70
8595;DHT22;4335;48.860;9.198;2023-09-19T10:30:31;34.70;58.00
8595;DHT22;4335;48.860;9.198;2023-09-19T10:33:06;35.00;56.80
8595;DHT22;4335;48.860;9.198;2023-09-19T10:35:34;35.60;56.40
8595;DHT22;4335;48.860;9.198;2023-09-19T10:38:06;35.30;56.10
8595;DHT22;4335;48.860;9.198;2023-09-19T10:40:38;34.10;56.40
8595;DHT22;4335;48.860;9.198;2023-09-19T10:43:12;33.40;58.40
8595;DHT22;4335;48.860;9.198;2023-09-19T10:45:40;33.00;59.00
8595;DHT22;4335;48.860;9.198;2023-09-19T10:48:07;33.40;58.60
8595;DHT22;4335;48.860;9.198;2023-09-19T10:50:36;33.70;57.90
8595;DHT22;4335;48.860;9.198;2023-09-19T10:53:12;34.10;57.40
8595;DHT22;4335;48.860;9.198;2023-09-19T10:55:49;33.50;56.80
8595;DHT22;4335;48.860;9.198;2023-09-19T10:58:34;32.30;58.00
8595;DHT22;4335;48.860;9.198;2023-09-19T11:01:03;31.20;60.00
8595;DHT22;4335;48.860;9.198;2023-09-19T11:03:33;30.00;63.50
8595;DHT22;4335;48.860;9.198;2023-09-19T11:06:04;28.90;66.30
8595;DHT22;4335;48.860;9.198;2023-09-19T11:08:54;28.10;69.30
8595;DHT22;4335;48.860;9.198;2023-09-19T11:11:44;27.40;70.90
8595;DHT22;4335;48.860;9.198;2023-09-19T11:14:41;26.90;73.50
8595;DHT22;4335;48.860;9.198;2023-09-19T11:17:41;26.70;75.00
8595;DHT22;4335;48.860;9.198;2023-09-19T11:20:23;26.30;76.10
8595;DHT22;4335;48.860;9.198;2023-09-19T11:23:18;25.70;77.00
8595;DHT22;4335;48.860;9.198;2023-09-19T11:25:49;25.30;78.50
8595;DHT22;4335;48.860;9.198;2023-09-19T11:28:33;24.80;80.20
8595;DHT22;4335;48.860;9.198;2023-09-19T11:34:46;24.20;88.20
8595;DHT22;4335;48.860;9.198;2023-09-19T11:40:52;23.80;94.70
8595;DHT22;4335;48.860;9.198;2023-09-19T11:43:35;23.50;95.90
8595;DHT22;4335;48.860;9.198;2023-09-19T11:46:08;23.30;96.40
8595;DHT22;4335;48.860;9.198;2023-09-19T11:48:42;23.20;98.30
8595;DHT22;4335;48.860;9.198;2023-09-19T11:51:14;23.00;98.90
8595;DHT22;4335;48.860;9.198;2023-09-19T11:53:53;22.90;99.80
8595;DHT22;4335;48.860;9.198;2023-09-19T11:56:21;22.80;99.90
8595;DHT22;4335;48.860;9.198;2023-09-19T11:58:51;22.70;99.90
8595;DHT22;4335;48.860;9.198;2023-09-19T12:01:23;22.80;99.90
8595;DHT22;4335;48.860;9.198;2023-09-19T12:03:53;22.80;99.90
8595;DHT22;4335;48.860;9.198;2023-09-19T12:06:23;22.80;99.90
8595;DHT22;4335;48.860;9.198;2023-09-19T12:08:50;22.70;99.90
8595;DHT22;4335;48.860;9.198;2023-09-19T12:11:21;22.60;99.90
8595;DHT22;4335;48.860;9.198;2023-09-19T12:14:01;22.70;99.90
8595;DHT22;4335;48.860;9.198;2023-09-19T12:16:35;22.60;99.90
8595;DHT22;4335;48.860;9.198;2023-09-19T12:19:18;22.60;99.90
8595;DHT22;4335;48.860;9.198;2023-09-19T12:21:59;22.70;99.90
8595;DHT22;4335;48.860;9.198;2023-09-19T12:24:30;22.80;99.90
8595;DHT22;4335;48.860;9.198;2023-09-19T12:27:01;22.80;99.90
8595;DHT22;4335;48.860;9.198;2023-09-19T12:29:31;22.90;99.90
8595;DHT22;4335;48.860;9.198;2023-09-19T12:32:00;22.90;99.90
8595;DHT22;4335;48.860;9.198;2023-09-19T12:34:30;22.90;99.90
8595;DHT22;4335;48.860;9.198;2023-09-19T12:37:11;23.00;99.90
8595;DHT22;4335;48.860;9.198;2023-09-19T12:39:42;22.90;99.90
8595;DHT22;4335;48.860;9.198;2023-09-19T12:42:10;22.90;99.90
8595;DHT22;4335;48.860;9.198;2023-09-19T12:44:42;22.80;99.90
8595;DHT22;4335;48.860;9.198;2023-09-19T12:47:11;22.80;99.90
8595;DHT22;4335;48.860;9.198;2023-09-19T12:50:06;22.70;99.90
8595;DHT22;4335;48.860;9.198;2023-09-19T12:52:37;22.70;99.90
8595;DHT22;4335;48.860;9.198;2023-09-19T12:55:20;22.60;99.90
8595;DHT22;4335;48.860;9.198;2023-09-19T12:58:07;22.70;99.90
8595;DHT22;4335;48.860;9.198;2023-09-19T13:00:37;22.80;99.90
8595;DHT22;4335;48.860;9.198;2023-09-19T13:03:25;22.90;99.90
8595;DHT22;4335;48.860;9.198;2023-09-19T13:05:55;22.90;99.90
8595;DHT22;4335;48.860;9.198;2023-09-19T13:08:27;22.90;99.90
8595;DHT22;4335;48.860;9.198;2023-09-19T13:11:09;22.80;99.90
8595;DHT22;4335;48.860;9.198;2023-09-19T13:13:39;22.70;99.90
8595;DHT22;4335;48.860;9.198;2023-09-19T13:16:10;22.70;99.90
8595;DHT22;4335;48.860;9.198;2023-09-19T13:18:47;22.70;99.90
8595;DHT22;4335;48.860;9.198;2023-09-19T13:21:26;22.70;99.90
8595;DHT22;4335;48.860;9.198;2023-09-19T13:23:54;22.70;99.90
8595;DHT22;4335;48.860;9.198;2023-09-19T13:26:22;22.50;99.90
8595;DHT22;4335;48.860;9.198;2023-09-19T13:28:49;22.50;99.90
8595;DHT22;4335;48.860;9.198;2023-09-19T13:31:22;22.60;99.90
8595;DHT22;4335;48.860;9.198;2023-09-19T13:33:58;22.60;99.90
8595;DHT22;4335;48.860;9.198;2023-09-19T13:36:25;22.70;99.90
8595;DHT22;4335;48.860;9.198;2023-09-19T13:39:00;22.70;99.90
8595;DHT22;4335;48.860;9.198;2023-09-19T13:41:27;22.80;99.90
8595;DHT22;4335;48.860;9.198;2023-09-19T13:43:54;22.90;99.90
8595;DHT22;4335;48.860;9.198;2023-09-19T13:46:26;23.00;99.90
8595;DHT22;4335;48.860;9.198;2023-09-19T13:48:53;23.00;99.90
8595;DHT22;4335;48.860;9.198;2023-09-19T13:51:20;23.10;99.90
8595;DHT22;4335;48.860;9.198;2023-09-19T13:53:48;23.10;99.90
8595;DHT22;4335;48.860;9.198;2023-09-19T13:56:21;23.10;99.80
8595;DHT22;4335;48.860;9.198;2023-09-19T13:58:48;23.10;99.90
8595;DHT22;4335;48.860;9.198;2023-09-19T14:01:17;23.20;99.90
8595;DHT22;4335;48.860;9.198;2023-09-19T14:03:47;23.20;99.90
8595;DHT22;4335;48.860;9.198;2023-09-19T14:06:16;23.10;99.90
8595;DHT22;4335;48.860;9.198;2023-09-19T14:08:44;23.20;99.90
8595;DHT22;4335;48.860;9.198;2023-09-19T14:11:13;23.30;99.90
8595;DHT22;4335;48.860;9.198;2023-09-19T14:13:45;23.20;99.90
8595;DHT22;4335;48.860;9.198;2023-09-19T14:16:15;23.30;99.90
8595;DHT22;4335;48.860;9.198;2023-09-19T14:18:46;23.30;99.90
8595;DHT22;4335;48.860;9.198;2023-09-19T14:21:12;23.30;99.30
8595;DHT22;4335;48.860;9.198;2023-09-19T14:23:40;23.20;99.90
8595;DHT22;4335;48.860;9.198;2023-09-19T14:26:08;23.30;99.90
8595;DHT22;4335;48.860;9.198;2023-09-19T14:28:38;23.40;99.90
8595;DHT22;4335;48.860;9.198;2023-09-19T14:31:08;23.30;99.90
8595;DHT22;4335;48.860;9.198;2023-09-19T14:33:38;23.40;99.90
8595;DHT22;4335;48.860;9.198;2023-09-19T14:36:09;23.40;99.90
8595;DHT22;4335;48.860;9.198;2023-09-19T14:38:37;23.30;98.60
8595;DHT22;4335;48.860;9.198;2023-09-19T14:41:05;23.30;98.90
8595;DHT22;4335;48.860;9.198;2023-09-19T14:43:32;23.10;99.60
8595;DHT22;4335;48.860;9.198;2023-09-19T14:46:03;23.10;99.00
8595;DHT22;4335;48.860;9.198;2023-09-19T14:48:29;23.20;99.50
8595;DHT22;4335;48.860;9.198;2023-09-19T14:51:02;23.30;99.60
8595;DHT22;4335;48.860;9.198;2023-09-19T14:53:32;23.30;99.90
8595;DHT22;4335;48.860;9.198;2023-09-19T14:56:00;23.30;99.90
8595;DHT22;4335;48.860;9.198;2023-09-19T14:58:31;23.30;99.50
8595;DHT22;4335;48.860;9.198;2023-09-19T15:01:03;23.30;99.20
8595;DHT22;4335;48.860;9.198;2023-09-19T15:03:31;23.30;98.90
8595;DHT22;4335;48.860;9.198;2023-09-19T15:06:01;23.30;98.90
8595;DHT22;4335;48.860;9.198;2023-09-19T15:08:41;23.30;99.10
8595;DHT22;4335;48.860;9.198;2023-09-19T15:11:11;23.30;99.10
8595;DHT22;4335;48.860;9.198;2023-09-19T15:13:39;23.30;99.10
8595;DHT22;4335;48.860;9.198;2023-09-19T15:16:09;23.20;98.30
8595;DHT22;4335;48.860;9.198;2023-09-19T15:18:39;23.30;97.50
8595;DHT22;4335;48.860;9.198;2023-09-19T15:21:16;23.20;98.30
8595;DHT22;4335;48.860;9.198;2023-09-19T15:23:44;23.10;98.20
8595;DHT22;4335;48.860;9.198;2023-09-19T15:26:12;23.00;98.30
8595;DHT22;4335;48.860;9.198;2023-09-19T15:28:42;23.00;99.00
8595;DHT22;4335;48.860;9.198;2023-09-19T15:31:11;23.00;98.60
8595;DHT22;4335;48.860;9.198;2023-09-19T15:33:38;23.00;98.30
8595;DHT22;4335;48.860;9.198;2023-09-19T15:36:06;23.10;98.70
8595;DHT22;4335;48.860;9.198;2023-09-19T15:38:57;22.90;98.20
8595;DHT22;4335;48.860;9.198;2023-09-19T15:41:25;22.90;97.60
8595;DHT22;4335;48.860;9.198;2023-09-19T15:43:57;22.80;98.00
8595;DHT22;4335;48.860;9.198;2023-09-19T15:46:25;22.80;97.50
8595;DHT22;4335;48.860;9.198;2023-09-19T15:48:55;22.70;97.10
8595;DHT22;4335;48.860;9.198;2023-09-19T15:51:22;22.70;98.10
8595;DHT22;4335;48.860;9.198;2023-09-19T15:53:53;22.60;98.10
8595;DHT22;4335;48.860;9.198;2023-09-19T15:56:22;22.60;98.10
8595;DHT22;4335;48.860;9.198;2023-09-19T15:58:54;22.50;98.00
8595;DHT22;4335;48.860;9.198;2023-09-19T16:01:22;22.50;98.00
8595;DHT22;4335;48.860;9.198;2023-09-19T16:03:53;22.50;98.40
8595;DHT22;4335;48.860;9.198;2023-09-19T16:06:23;22.40;98.70
8595;DHT22;4335;48.860;9.198;2023-09-19T16:08:50;22.40;98.80
8595;DHT22;4335;48.860;9.198;2023-09-19T16:11:18;22.40;98.70
8595;DHT22;4335;48.860;9.198;2023-09-19T16:13:48;22.30;99.10
8595;DHT22;4335;48.860;9.198;2023-09-19T16:16:15;22.30;99.50
8595;DHT22;4335;48.860;9.198;2023-09-19T16:18:45;22.30;99.50
8595;DHT22;4335;48.860;9.198;2023-09-19T16:21:14;22.20;99.60
8595;DHT22;4335;48.860;9.198;2023-09-19T16:23:44;22.10;99.90
8595;DHT22;4335;48.860;9.198;2023-09-19T16:26:11;22.10;99.90
8595;DHT22;4335;48.860;9.198;2023-09-19T16:28:44;22.10;99.90
8595;DHT22;4335;48.860;9.198;2023-09-19T16:31:17;22.10;99.90
8595;DHT22;4335;48.860;9.198;2023-09-19T16:33:46;22.00;99.90
8595;DHT22;4335;48.860;9.198;2023-09-19T16:36:14;22.00;99.90
8595;DHT22;4335;48.860;9.198;2023-09-19T16:38:50;22.00;99.90